createdAt,value
2019-02-19T00:00:40.075Z,99.99
2019-02-19T00:01:40.125Z,99.99
2019-02-19T00:02:40.179Z,99.99
2019-02-19T00:03:40.226Z,99.99
2019-02-19T00:04:40.276Z,99.99
2019-02-19T00:05:40.329Z,99.99
2019-02-19T00:06:40.379Z,99.99
2019-02-19T00:07:40.432Z,99.99
2019-02-19T00:08:40.481Z,99.99
2019-02-19T00:09:40.533Z,99.99
2019-02-19T00:10:40.584Z,99.99
2019-02-19T00:11:40.636Z,99.99
2019-02-19T00:12:40.686Z,99.99
2019-02-19T00:13:40.737Z,99.99
2019-02-19T00:14:40.786Z,99.99
2019-02-19T00:15:40.839Z,99.99
2019-02-19T00:16:40.889Z,99.99
2019-02-19T00:17:40.940Z,99.99
2019-02-19T00:18:40.991Z,99.99
2019-02-19T00:19:41.042Z,99.99
2019-02-19T00:20:41.092Z,99.99
2019-02-19T00:21:41.143Z,99.99
2019-02-19T00:22:41.193Z,99.99
2019-02-19T00:23:41.244Z,99.99
2019-02-19T00:24:41.312Z,99.99
2019-02-19T00:25:41.345Z,99.99
2019-02-19T00:26:41.395Z,99.99
2019-02-19T00:27:41.448Z,99.99
2019-02-19T00:28:41.497Z,99.99
2019-02-19T00:29:41.547Z,99.99
2019-02-19T00:30:41.599Z,99.99
2019-02-19T00:31:41.651Z,99.99
2019-02-19T00:32:41.699Z,99.99
2019-02-19T00:33:41.750Z,99.99
2019-02-19T00:34:41.802Z,99.99
2019-02-19T00:35:41.852Z,99.99
2019-02-19T00:36:41.901Z,99.99
2019-02-19T00:37:41.953Z,99.99
2019-02-19T00:38:42.004Z,99.99
2019-02-19T00:39:42.055Z,99.99
2019-02-19T00:40:42.104Z,99.99
2019-02-19T00:41:42.154Z,99.99
2019-02-19T00:42:42.206Z,99.99
2019-02-19T00:43:42.262Z,99.99
2019-02-19T00:44:42.307Z,99.99
2019-02-19T00:45:42.357Z,99.99
2019-02-19T00:46:42.409Z,99.99
2019-02-19T00:47:42.460Z,99.99
2019-02-19T00:48:42.509Z,99.99
2019-02-19T00:49:42.560Z,99.99
2019-02-19T00:50:42.611Z,99.99
2019-02-19T00:51:42.660Z,99.99
2019-02-19T00:52:42.712Z,99.99
2019-02-19T00:53:42.762Z,99.99
2019-02-19T00:54:42.813Z,99.99
2019-02-19T00:55:42.863Z,99.99
2019-02-19T00:56:42.913Z,99.99
2019-02-19T00:57:42.964Z,99.99
2019-02-19T00:58:43.016Z,99.99
2019-02-19T00:59:43.068Z,99.99
2019-02-19T01:00:43.115Z,99.99
2019-02-19T01:01:43.168Z,99.99
2019-02-19T01:02:43.219Z,99.99
2019-02-19T01:03:43.267Z,99.99
2019-02-19T01:04:43.318Z,99.99
2019-02-19T01:05:43.368Z,99.99
2019-02-19T01:06:43.422Z,99.99
2019-02-19T01:07:43.471Z,99.99
2019-02-19T01:08:43.519Z,99.99
2019-02-19T01:09:43.574Z,99.99
2019-02-19T01:10:43.621Z,99.99
2019-02-19T01:11:43.672Z,99.99
2019-02-19T01:12:43.728Z,99.99
2019-02-19T01:13:43.774Z,99.99
2019-02-19T01:14:43.824Z,99.99
2019-02-19T01:15:43.879Z,99.99
2019-02-19T01:16:43.924Z,99.99
2019-02-19T01:17:43.976Z,99.99
2019-02-19T01:18:44.029Z,99.99
2019-02-19T01:19:44.078Z,99.99
2019-02-19T01:20:44.136Z,99.99
2019-02-19T01:21:44.177Z,99.99
2019-02-19T01:22:44.229Z,99.99
2019-02-19T01:23:44.290Z,99.99
2019-02-19T01:24:44.330Z,99.99
2019-02-19T01:25:44.384Z,99.99
2019-02-19T01:26:44.431Z,99.99
2019-02-19T01:27:44.483Z,99.99
2019-02-19T01:28:44.531Z,99.99
2019-02-19T01:29:44.582Z,99.99
2019-02-19T01:30:44.633Z,99.99
2019-02-19T01:31:44.685Z,99.99
2019-02-19T01:32:44.735Z,99.99
2019-02-19T01:33:44.785Z,99.99
2019-02-19T01:34:44.837Z,99.99
2019-02-19T01:35:44.887Z,99.99
2019-02-19T01:36:44.937Z,99.99
2019-02-19T01:37:44.989Z,99.99
2019-02-19T01:38:45.038Z,99.99
2019-02-19T01:39:45.091Z,99.99
2019-02-19T01:40:45.140Z,99.99
2019-02-19T01:41:45.192Z,99.99
2019-02-19T01:42:45.241Z,99.99
2019-02-19T01:43:45.292Z,99.99
2019-02-19T01:44:45.343Z,99.99
2019-02-19T01:45:45.393Z,99.99
2019-02-19T01:46:45.445Z,99.99
2019-02-19T01:47:45.499Z,99.99
2019-02-19T01:48:45.551Z,99.99
2019-02-19T01:49:45.596Z,99.99
2019-02-19T01:50:45.647Z,99.99
2019-02-19T01:51:45.698Z,99.99
2019-02-19T01:52:45.747Z,99.99
2019-02-19T01:53:45.798Z,99.99
2019-02-19T01:54:45.850Z,99.99
2019-02-19T01:55:45.905Z,99.99
2019-02-19T01:56:45.949Z,99.99
2019-02-19T01:57:46.002Z,99.99
2019-02-19T01:58:46.051Z,99.99
2019-02-19T01:59:46.103Z,99.99
2019-02-19T02:00:46.153Z,99.99
2019-02-19T02:01:46.202Z,99.99
2019-02-19T02:02:46.253Z,99.99
2019-02-19T02:03:46.354Z,99.99
2019-02-19T02:04:46.353Z,99.99
2019-02-19T02:05:46.406Z,99.99
2019-02-19T02:06:46.468Z,99.99
2019-02-19T02:07:46.506Z,99.99
2019-02-19T02:08:46.559Z,99.99
2019-02-19T02:09:46.606Z,99.99
2019-02-19T02:10:46.658Z,99.99
2019-02-19T02:11:46.711Z,99.99
2019-02-19T02:12:46.758Z,99.99
2019-02-19T02:13:46.809Z,99.99
2019-02-19T02:14:46.859Z,99.99
2019-02-19T02:15:46.911Z,99.99
2019-02-19T02:16:46.960Z,99.99
2019-02-19T02:17:47.011Z,99.99
2019-02-19T02:18:47.062Z,99.99
2019-02-19T02:19:47.113Z,99.99
2019-02-19T02:20:47.162Z,99.99
2019-02-19T02:21:47.214Z,99.99
2019-02-19T02:22:47.265Z,99.99
2019-02-19T02:23:47.317Z,99.99
2019-02-19T02:24:47.366Z,99.99
2019-02-19T02:25:48.123Z,99.99
2019-02-19T02:26:47.468Z,99.99
2019-02-19T02:27:47.521Z,99.99
2019-02-19T02:28:47.570Z,99.99
2019-02-19T02:29:47.618Z,99.99
2019-02-19T02:30:47.669Z,99.99
2019-02-19T02:31:47.722Z,99.99
2019-02-19T02:32:47.772Z,99.99
2019-02-19T02:33:47.821Z,99.99
2019-02-19T02:34:47.873Z,99.99
2019-02-19T02:35:47.924Z,99.99
2019-02-19T02:36:47.973Z,99.99
2019-02-19T02:37:48.022Z,99.99
2019-02-19T02:38:48.074Z,99.99
2019-02-19T02:39:48.124Z,99.99
2019-02-19T02:40:48.174Z,99.99
2019-02-19T02:41:48.225Z,99.99
2019-02-19T02:42:48.276Z,99.99
2019-02-19T02:43:48.329Z,99.99
2019-02-19T02:44:48.377Z,99.99
2019-02-19T02:45:53.500Z,99.99
2019-02-19T02:46:48.478Z,99.99
2019-02-19T02:47:48.526Z,99.99
2019-02-19T02:48:48.591Z,99.99
2019-02-19T02:49:48.629Z,99.99
2019-02-19T02:50:48.677Z,99.99
2019-02-19T02:51:48.729Z,99.99
2019-02-19T02:52:48.780Z,99.99
2019-02-19T02:53:48.829Z,99.99
2019-02-19T02:54:48.881Z,99.99
2019-02-19T02:55:48.933Z,99.99
2019-02-19T02:56:48.982Z,99.99
2019-02-19T02:57:49.032Z,99.99
2019-02-19T02:58:49.082Z,99.99
2019-02-19T02:59:49.131Z,99.99
2019-02-19T03:00:49.186Z,99.99
2019-02-19T03:01:49.232Z,99.99
2019-02-19T03:02:49.283Z,99.99
2019-02-19T03:03:49.333Z,99.99
2019-02-19T03:04:49.382Z,99.99
2019-02-19T03:05:49.434Z,99.99
2019-02-19T03:06:49.484Z,99.99
2019-02-19T03:07:49.535Z,99.99
2019-02-19T03:08:49.583Z,99.99
2019-02-19T03:09:49.637Z,99.99
2019-02-19T03:10:49.687Z,99.99
2019-02-19T03:11:49.735Z,99.99
2019-02-19T03:12:49.785Z,99.99
2019-02-19T03:13:49.835Z,99.99
2019-02-19T03:14:49.888Z,99.99
2019-02-19T03:15:49.937Z,99.99
2019-02-19T03:16:49.989Z,99.99
2019-02-19T03:17:50.038Z,99.99
2019-02-19T03:18:50.087Z,99.99
2019-02-19T03:19:50.137Z,99.99
2019-02-19T03:20:50.189Z,99.99
2019-02-19T03:21:50.239Z,99.99
2019-02-19T03:22:50.287Z,99.99
2019-02-19T03:23:50.338Z,99.99
2019-02-19T03:24:50.387Z,99.99
2019-02-19T03:25:50.437Z,99.99
2019-02-19T03:26:50.497Z,99.99
2019-02-19T03:27:50.539Z,99.99
2019-02-19T03:28:50.596Z,99.99
2019-02-19T03:29:50.646Z,99.99
2019-02-19T03:30:50.691Z,99.99
2019-02-19T03:31:50.742Z,99.99
2019-02-19T03:32:50.794Z,99.99
2019-02-19T03:33:50.842Z,99.99
2019-02-19T03:34:50.891Z,99.99
2019-02-19T03:35:50.942Z,99.99
2019-02-19T03:36:50.994Z,99.99
2019-02-19T03:37:51.040Z,99.99
2019-02-19T03:38:51.093Z,99.99
2019-02-19T03:39:51.142Z,99.99
2019-02-19T03:40:51.193Z,99.99
2019-02-19T03:41:51.245Z,99.99
2019-02-19T03:42:51.293Z,99.99
2019-02-19T03:43:51.345Z,99.99
2019-02-19T03:44:51.394Z,99.99
2019-02-19T03:45:51.444Z,99.99
2019-02-19T03:46:51.496Z,99.99
2019-02-19T03:47:51.546Z,99.99
2019-02-19T03:48:51.595Z,99.99
2019-02-19T03:49:51.652Z,99.99
2019-02-19T03:50:51.697Z,99.99
2019-02-19T03:51:51.749Z,99.99
2019-02-19T03:52:51.796Z,99.99
2019-02-19T03:53:51.848Z,99.99
2019-02-19T03:54:51.905Z,99.99
2019-02-19T03:55:51.949Z,99.99
2019-02-19T03:56:51.999Z,99.99
2019-02-19T03:57:52.050Z,99.99
2019-02-19T03:58:52.104Z,99.99
2019-02-19T03:59:52.153Z,99.99
2019-02-19T04:00:52.201Z,99.99
2019-02-19T04:01:52.250Z,99.99
2019-02-19T04:02:52.302Z,99.99
2019-02-19T04:03:52.360Z,99.99
2019-02-19T04:04:52.402Z,99.99
2019-02-19T04:05:52.453Z,99.99
2019-02-19T04:06:52.504Z,99.99
2019-02-19T04:07:52.555Z,99.99
2019-02-19T04:08:52.605Z,99.99
2019-02-19T04:09:52.655Z,99.99
2019-02-19T04:10:52.705Z,99.99
2019-02-19T04:11:52.757Z,99.99
2019-02-19T04:12:52.807Z,99.99
2019-02-19T04:13:52.858Z,99.99
2019-02-19T04:14:52.908Z,99.99
2019-02-19T04:15:52.959Z,99.99
2019-02-19T04:16:53.008Z,99.99
2019-02-19T04:17:53.059Z,99.99
2019-02-19T04:18:53.111Z,99.99
2019-02-19T04:19:53.163Z,99.99
2019-02-19T04:20:53.210Z,99.99
2019-02-19T04:21:53.266Z,99.99
2019-02-19T04:22:53.316Z,99.99
2019-02-19T04:23:53.363Z,99.99
2019-02-19T04:24:53.413Z,99.99
2019-02-19T04:25:53.463Z,99.99
2019-02-19T04:26:53.517Z,99.99
2019-02-19T04:27:53.565Z,99.99
2019-02-19T04:28:53.618Z,99.99
2019-02-19T04:29:53.665Z,99.99
2019-02-19T04:30:53.718Z,99.99
2019-02-19T04:31:53.770Z,99.99
2019-02-19T04:32:53.820Z,99.99
2019-02-19T04:33:53.868Z,99.99
2019-02-19T04:34:53.919Z,99.99
2019-02-19T04:35:53.971Z,99.99
2019-02-19T04:36:54.019Z,99.99
2019-02-19T04:37:54.072Z,99.99
2019-02-19T04:38:54.123Z,99.99
2019-02-19T04:39:54.175Z,99.99
2019-02-19T04:40:54.227Z,99.99
2019-02-19T04:41:54.273Z,99.99
2019-02-19T04:42:54.324Z,99.99
2019-02-19T04:43:54.376Z,99.99
2019-02-19T04:44:54.425Z,99.99
2019-02-19T04:45:54.477Z,99.99
2019-02-19T04:46:54.529Z,99.99
2019-02-19T04:47:54.613Z,99.99
2019-02-19T04:48:54.651Z,99.99
2019-02-19T04:49:54.719Z,99.99
2019-02-19T04:50:54.757Z,99.99
2019-02-19T04:51:54.810Z,99.99
2019-02-19T04:52:54.924Z,99.99
2019-02-19T04:53:55.238Z,99.99
2019-02-19T04:54:54.943Z,99.99
2019-02-19T04:55:54.986Z,99.99
2019-02-19T04:56:55.035Z,99.99
2019-02-19T04:57:55.086Z,99.99
2019-02-19T04:58:55.141Z,99.99
2019-02-19T04:59:55.208Z,99.99
2019-02-19T05:00:55.239Z,99.99
2019-02-19T05:01:55.323Z,99.99
2019-02-19T05:02:55.339Z,99.99
2019-02-19T05:03:55.390Z,99.99
2019-02-19T05:04:55.447Z,99.99
2019-02-19T05:05:55.493Z,99.99
2019-02-19T05:06:55.543Z,99.99
2019-02-19T05:07:55.594Z,99.99
2019-02-19T05:08:55.644Z,99.99
2019-02-19T05:09:55.696Z,99.99
2019-02-19T05:10:55.747Z,99.99
2019-02-19T05:11:55.796Z,99.99
2019-02-19T05:12:55.848Z,99.99
2019-02-19T05:13:55.898Z,99.99
2019-02-19T05:14:55.951Z,99.99
2019-02-19T05:15:56.005Z,99.99
2019-02-19T05:16:56.050Z,99.99
2019-02-19T05:17:56.101Z,99.99
2019-02-19T05:18:56.160Z,99.99
2019-02-19T05:19:56.205Z,99.99
2019-02-19T05:20:56.255Z,99.99
2019-02-19T05:21:56.306Z,99.99
2019-02-19T05:22:56.362Z,99.99
2019-02-19T05:23:56.409Z,99.99
2019-02-19T05:24:56.458Z,99.99
2019-02-19T05:25:56.511Z,99.99
2019-02-19T05:26:56.894Z,99.99
2019-02-19T05:27:56.614Z,99.99
2019-02-19T05:28:56.661Z,99.99
2019-02-19T05:29:56.714Z,99.99
2019-02-19T05:30:56.764Z,99.99
2019-02-19T05:31:56.816Z,99.99
2019-02-19T05:32:56.865Z,99.99
2019-02-19T05:33:56.920Z,99.99
2019-02-19T05:34:56.969Z,99.99
2019-02-19T05:35:57.021Z,99.99
2019-02-19T05:36:57.070Z,99.99
2019-02-19T05:37:57.131Z,99.99
2019-02-19T05:38:57.174Z,99.99
2019-02-19T05:39:57.225Z,99.99
2019-02-19T05:40:57.274Z,99.99
2019-02-19T05:41:57.326Z,99.99
2019-02-19T05:42:57.377Z,99.99
2019-02-19T05:43:57.429Z,99.99
2019-02-19T05:44:57.479Z,99.99
2019-02-19T05:45:57.531Z,99.99
2019-02-19T05:46:57.583Z,99.99
2019-02-19T05:47:57.635Z,99.99
2019-02-19T05:48:57.688Z,99.99
2019-02-19T05:49:57.737Z,99.99
2019-02-19T05:50:57.789Z,99.99
2019-02-19T05:51:57.838Z,99.99
2019-02-19T05:52:57.888Z,99.99
2019-02-19T05:53:57.941Z,99.99
2019-02-19T05:54:57.991Z,99.99
2019-02-19T05:55:58.044Z,99.99
2019-02-19T05:56:58.098Z,99.99
2019-02-19T05:57:58.155Z,99.99
2019-02-19T05:58:58.197Z,99.99
2019-02-19T05:59:58.248Z,99.99
2019-02-19T06:00:58.299Z,99.99
2019-02-19T06:01:58.349Z,99.99
2019-02-19T06:02:58.401Z,99.99
2019-02-19T06:03:58.453Z,99.99
2019-02-19T06:04:58.501Z,99.99
2019-02-19T06:05:58.557Z,99.99
2019-02-19T06:06:58.649Z,99.99
2019-02-19T06:07:58.965Z,99.99
2019-02-19T06:08:58.717Z,99.99
2019-02-19T06:09:59.095Z,99.99
2019-02-19T06:10:58.837Z,99.99
2019-02-19T06:11:58.891Z,99.99
2019-02-19T06:12:58.925Z,99.99
2019-02-19T06:13:59.001Z,99.99
2019-02-19T06:14:59.331Z,99.99
2019-02-19T06:15:59.093Z,99.99
2019-02-19T06:16:59.172Z,99.99
2019-02-19T06:17:59.173Z,99.99
2019-02-19T06:18:59.271Z,99.99
2019-02-19T06:19:59.713Z,99.99
2019-02-19T06:20:59.365Z,99.99
2019-02-19T06:21:59.398Z,99.99
2019-02-19T06:22:59.510Z,99.99
2019-02-19T06:23:59.476Z,99.99
2019-02-19T06:24:59.528Z,99.99
2019-02-19T06:25:59.581Z,99.99
2019-02-19T06:26:59.631Z,99.99
2019-02-19T06:27:59.681Z,99.99
2019-02-19T06:28:59.732Z,99.99
2019-02-19T06:29:59.787Z,99.99
2019-02-19T06:30:59.839Z,99.99
2019-02-19T06:31:59.885Z,99.99
2019-02-19T06:32:59.946Z,99.99
2019-02-19T06:33:59.990Z,99.99
2019-02-19T06:35:00.039Z,99.99
2019-02-19T06:36:00.094Z,99.99
2019-02-19T06:37:00.147Z,99.99
2019-02-19T06:38:00.192Z,99.99
2019-02-19T06:39:00.244Z,99.99
2019-02-19T06:40:00.330Z,99.99
2019-02-19T06:41:01.967Z,99.99
2019-02-19T06:42:00.395Z,99.99
2019-02-19T06:43:00.450Z,99.99
2019-02-19T06:44:00.498Z,99.99
2019-02-19T06:45:00.548Z,99.99
2019-02-19T06:46:00.599Z,99.99
2019-02-19T06:47:06.647Z,99.99
2019-02-19T06:48:00.702Z,99.99
2019-02-19T06:49:00.754Z,99.99
2019-02-19T06:50:00.807Z,99.99
2019-02-19T06:51:00.856Z,99.99
2019-02-19T06:52:00.907Z,99.99
2019-02-19T06:53:00.957Z,99.99
2019-02-19T06:54:01.009Z,99.99
2019-02-19T06:55:01.078Z,99.99
2019-02-19T06:56:01.110Z,99.99
2019-02-19T06:57:01.160Z,99.99
2019-02-19T06:58:01.212Z,99.99
2019-02-19T06:59:01.296Z,99.99
2019-02-19T07:00:01.315Z,99.99
2019-02-19T07:01:01.371Z,99.99
2019-02-19T07:02:01.420Z,99.99
2019-02-19T07:03:01.468Z,99.99
2019-02-19T07:04:01.519Z,99.99
2019-02-19T07:05:01.925Z,99.99
2019-02-19T07:06:01.624Z,99.99
2019-02-19T07:07:01.672Z,99.99
2019-02-19T07:08:01.727Z,99.99
2019-02-19T07:09:01.774Z,99.99
2019-02-19T07:10:01.828Z,99.99
2019-02-19T07:11:01.883Z,99.99
2019-02-19T07:12:01.927Z,99.99
2019-02-19T07:13:01.979Z,99.99
2019-02-19T07:14:02.029Z,99.99
2019-02-19T07:15:02.083Z,99.99
2019-02-19T07:16:02.133Z,99.99
2019-02-19T07:17:02.186Z,99.99
2019-02-19T07:18:02.232Z,99.99
2019-02-19T07:19:02.314Z,99.99
2019-02-19T07:20:02.336Z,99.99
2019-02-19T07:21:02.389Z,99.99
2019-02-19T07:22:02.438Z,99.99
2019-02-19T07:23:02.492Z,99.99
2019-02-19T07:24:04.686Z,99.99
2019-02-19T07:25:02.590Z,99.99
2019-02-19T07:26:02.642Z,99.99
2019-02-19T07:27:02.693Z,99.99
2019-02-19T07:28:02.745Z,99.99
2019-02-19T07:29:02.795Z,99.99
2019-02-19T07:30:02.846Z,99.99
2019-02-19T07:31:02.898Z,99.99
2019-02-19T07:32:02.961Z,99.99
2019-02-19T07:33:03.001Z,99.99
2019-02-19T07:34:03.054Z,99.99
2019-02-19T07:35:03.449Z,99.99
2019-02-19T07:36:03.152Z,99.99
2019-02-19T07:37:03.202Z,99.99
2019-02-19T07:38:03.578Z,99.99
2019-02-19T07:39:03.308Z,99.99
2019-02-19T07:40:03.359Z,99.99
2019-02-19T07:41:03.416Z,99.99
2019-02-19T07:42:03.460Z,99.99
2019-02-19T07:43:03.841Z,99.99
2019-02-19T07:44:03.564Z,99.99
2019-02-19T07:45:04.056Z,99.99
2019-02-19T07:46:04.074Z,99.99
2019-02-19T07:47:03.715Z,99.99
2019-02-19T07:48:03.766Z,99.99
2019-02-19T07:49:03.818Z,99.99
2019-02-19T07:50:03.872Z,99.99
2019-02-19T07:51:03.920Z,99.99
2019-02-19T07:52:03.972Z,99.99
2019-02-19T07:53:04.022Z,99.99
2019-02-19T07:54:04.073Z,99.99
2019-02-19T07:55:04.125Z,99.99
2019-02-19T07:56:04.176Z,99.99
2019-02-19T07:57:04.234Z,99.99
2019-02-19T07:58:04.313Z,99.99
2019-02-19T07:59:04.341Z,99.99
2019-02-19T08:00:04.387Z,99.99
2019-02-19T08:01:04.447Z,99.99
2019-02-19T08:02:04.487Z,99.99
2019-02-19T08:03:05.050Z,99.99
2019-02-19T08:04:04.587Z,99.99
2019-02-19T08:05:04.640Z,99.99
2019-02-19T08:06:04.689Z,99.99
2019-02-19T08:07:04.740Z,99.99
2019-02-19T08:08:04.794Z,99.99
2019-02-19T08:09:04.843Z,99.99
2019-02-19T08:10:04.896Z,99.99
2019-02-19T08:11:04.970Z,99.99
2019-02-19T08:12:04.998Z,99.99
2019-02-19T08:13:05.053Z,99.99
2019-02-19T08:14:05.107Z,99.99
2019-02-19T08:15:05.153Z,99.99
2019-02-19T08:16:05.204Z,99.99
2019-02-19T08:17:05.257Z,99.99
2019-02-19T08:18:05.313Z,99.99
2019-02-19T08:19:05.360Z,99.99
2019-02-19T08:20:05.411Z,99.99
2019-02-19T08:21:05.465Z,99.99
2019-02-19T08:22:05.513Z,99.99
2019-02-19T08:23:05.567Z,99.99
2019-02-19T08:24:05.618Z,99.99
2019-02-19T08:25:05.669Z,99.99
2019-02-19T08:26:05.727Z,99.99
2019-02-19T08:27:05.773Z,99.99
2019-02-19T08:28:05.823Z,99.99
2019-02-19T08:29:13.477Z,99.99
2019-02-19T08:30:05.927Z,99.99
2019-02-19T08:31:05.988Z,99.99
2019-02-19T08:32:06.032Z,99.99
2019-02-19T08:33:06.083Z,99.99
2019-02-19T08:34:06.147Z,99.99
2019-02-19T08:35:06.188Z,99.99
2019-02-19T08:36:06.238Z,99.99
2019-02-19T08:37:06.291Z,99.99
2019-02-19T08:38:06.346Z,99.99
2019-02-19T08:39:06.395Z,99.99
2019-02-19T08:40:06.449Z,99.99
2019-02-19T08:41:07.205Z,99.99
2019-02-19T08:42:07.131Z,99.99
2019-02-19T08:43:06.605Z,99.99
2019-02-19T08:44:08.435Z,99.99
2019-02-19T08:45:06.710Z,99.99
2019-02-19T08:46:06.760Z,99.99
2019-02-19T08:47:06.817Z,99.99
2019-02-19T08:48:06.867Z,99.99
2019-02-19T08:49:06.919Z,99.99
2019-02-19T08:50:06.971Z,99.99
2019-02-19T08:51:07.040Z,99.99
2019-02-19T08:52:07.078Z,99.99
2019-02-19T08:53:07.128Z,99.99
2019-02-19T08:54:07.181Z,99.99
2019-02-19T08:55:07.803Z,99.99
2019-02-19T08:56:07.290Z,99.99
2019-02-19T08:57:07.340Z,99.99
2019-02-19T08:58:07.396Z,99.99
2019-02-19T08:59:07.447Z,99.99
2019-02-19T09:00:07.500Z,99.99
2019-02-19T09:01:07.551Z,99.99
2019-02-19T09:02:07.604Z,99.99
2019-02-19T09:03:07.667Z,99.99
2019-02-19T09:04:07.712Z,99.99
2019-02-19T09:05:08.074Z,99.99
2019-02-19T09:06:07.825Z,99.99
2019-02-19T09:07:07.870Z,99.99
2019-02-19T09:08:07.923Z,99.99
2019-02-19T09:09:07.976Z,99.99
2019-02-19T09:10:08.030Z,99.99
2019-02-19T09:11:08.101Z,99.99
2019-02-19T09:12:08.140Z,99.99
2019-02-19T09:13:08.193Z,99.99
2019-02-19T09:14:08.242Z,99.99
2019-02-19T09:15:08.676Z,99.99
2019-02-19T09:16:08.350Z,99.99
2019-02-19T09:17:08.402Z,99.99
2019-02-19T09:18:08.456Z,99.99
2019-02-19T09:19:08.509Z,99.99
2019-02-19T09:20:08.563Z,99.99
2019-02-19T09:21:08.616Z,99.99
2019-02-19T09:22:08.670Z,99.99
2019-02-19T09:23:08.728Z,99.99
2019-02-19T09:24:09.772Z,99.99
2019-02-19T09:25:08.833Z,99.99
2019-02-19T09:26:08.885Z,99.99
2019-02-19T09:27:08.937Z,99.99
2019-02-19T09:28:08.993Z,99.99
2019-02-19T09:29:09.046Z,99.99
2019-02-19T09:30:09.099Z,99.99
2019-02-19T09:31:09.154Z,99.99
2019-02-19T09:32:09.209Z,99.99
2019-02-19T09:33:09.262Z,99.99
2019-02-19T09:34:09.317Z,99.99
2019-02-19T09:35:09.392Z,99.99
2019-02-19T09:36:09.426Z,99.99
2019-02-19T09:37:09.478Z,99.99
2019-02-19T09:38:09.533Z,99.99
2019-02-19T09:39:09.588Z,99.99
2019-02-19T09:40:09.642Z,99.99
2019-02-19T09:41:09.696Z,99.99
2019-02-19T09:42:09.751Z,99.99
2019-02-19T09:43:09.806Z,99.99
2019-02-19T09:44:09.859Z,99.99
2019-02-19T09:45:09.914Z,99.99
2019-02-19T09:46:09.970Z,99.99
2019-02-19T09:47:10.060Z,99.99
2019-02-19T09:48:10.078Z,99.99
2019-02-19T09:49:10.132Z,99.99
2019-02-19T09:50:10.193Z,99.99
2019-02-19T09:51:10.243Z,99.99
2019-02-19T09:52:10.299Z,99.99
2019-02-19T09:53:10.352Z,99.99
2019-02-19T09:54:10.406Z,99.99
2019-02-19T09:55:10.460Z,99.99
2019-02-19T09:56:10.515Z,99.99
2019-02-19T09:57:10.578Z,99.99
2019-02-19T09:58:10.626Z,99.99
2019-02-19T09:59:10.680Z,99.99
2019-02-19T10:00:10.737Z,99.99
2019-02-19T10:01:10.789Z,99.99
2019-02-19T10:02:10.846Z,99.99
2019-02-19T10:03:10.899Z,99.99
2019-02-19T10:04:10.954Z,99.99
2019-02-19T10:05:11.009Z,99.99
2019-02-19T10:06:11.064Z,99.99
2019-02-19T10:07:11.119Z,99.99
2019-02-19T10:08:11.174Z,99.99
2019-02-19T10:09:11.229Z,99.99
2019-02-19T10:10:11.284Z,99.99
2019-02-19T10:11:11.339Z,99.99
2019-02-19T10:12:11.397Z,99.99
2019-02-19T10:13:11.451Z,99.99
2019-02-19T10:14:11.503Z,99.99
2019-02-19T10:15:11.560Z,99.99
2019-02-19T10:16:11.616Z,99.99
2019-02-19T10:17:11.669Z,99.99
2019-02-19T10:18:12.035Z,99.99
2019-02-19T10:19:11.779Z,99.99
2019-02-19T10:20:13.405Z,99.99
2019-02-19T10:21:11.891Z,99.99
2019-02-19T10:22:11.965Z,99.99
2019-02-19T10:23:12.000Z,99.99
2019-02-19T10:24:12.056Z,99.99
2019-02-19T10:25:12.111Z,99.99
2019-02-19T10:26:12.166Z,99.99
2019-02-19T10:27:12.223Z,99.99
2019-02-19T10:28:12.278Z,99.99
2019-02-19T10:29:12.332Z,99.99
2019-02-19T10:30:12.409Z,99.99
2019-02-19T10:31:12.445Z,99.99
2019-02-19T10:32:12.506Z,99.99
2019-02-19T10:33:12.555Z,99.99
2019-02-19T10:34:12.612Z,99.99
2019-02-19T10:35:12.666Z,99.99
2019-02-19T10:36:12.722Z,99.99
2019-02-19T10:37:12.777Z,99.99
2019-02-19T10:38:12.834Z,99.99
2019-02-19T10:39:12.889Z,99.99
2019-02-19T10:40:12.945Z,99.99
2019-02-19T10:41:13.595Z,99.99
2019-02-19T10:42:13.057Z,99.99
2019-02-19T10:43:13.111Z,99.99
2019-02-19T10:44:13.166Z,99.99
2019-02-19T10:45:13.221Z,99.99
2019-02-19T10:46:13.276Z,99.99
2019-02-19T10:47:13.332Z,99.99
2019-02-19T10:48:19.074Z,99.99
2019-02-19T10:49:13.443Z,99.99
2019-02-19T10:50:13.499Z,99.99
2019-02-19T10:51:13.554Z,99.99
2019-02-19T10:52:13.610Z,99.99
2019-02-19T10:53:13.665Z,99.99
2019-02-19T10:54:13.721Z,99.99
2019-02-19T10:55:13.778Z,99.99
2019-02-19T10:56:13.831Z,99.99
2019-02-19T10:57:13.888Z,99.99
2019-02-19T10:58:22.650Z,99.99
2019-02-19T10:59:14.001Z,99.99
2019-02-19T11:00:14.056Z,99.99
2019-02-19T11:01:14.107Z,99.99
2019-02-19T11:02:14.162Z,99.99
2019-02-19T11:03:14.218Z,99.99
2019-02-19T11:04:14.275Z,99.99
2019-02-19T11:05:14.329Z,99.99
2019-02-19T11:06:14.385Z,99.99
2019-02-19T11:07:14.439Z,99.99
2019-02-19T11:08:14.496Z,99.99
2019-02-19T11:09:14.550Z,99.99
2019-02-19T11:10:14.607Z,99.99
2019-02-19T11:11:14.661Z,99.99
2019-02-19T11:12:14.716Z,99.99
2019-02-19T11:13:14.770Z,99.99
2019-02-19T11:14:14.827Z,99.99
2019-02-19T11:15:14.883Z,99.99
2019-02-19T11:16:14.940Z,99.99
2019-02-19T11:17:14.994Z,99.99
2019-02-19T11:18:15.048Z,99.99
2019-02-19T11:19:15.129Z,99.99
2019-02-19T11:20:15.161Z,99.99
2019-02-19T11:21:19.732Z,99.99
2019-02-19T11:22:15.272Z,99.99
2019-02-19T11:23:15.939Z,99.99
2019-02-19T11:24:15.383Z,99.99
2019-02-19T11:25:15.444Z,99.99
2019-02-19T11:26:15.494Z,99.99
2019-02-19T11:27:16.735Z,99.99
2019-02-19T11:28:15.610Z,99.99
2019-02-19T11:29:15.664Z,99.99
2019-02-19T11:30:15.721Z,99.99
2019-02-19T11:31:15.777Z,99.99
2019-02-19T11:32:15.833Z,99.99
2019-02-19T11:33:15.887Z,99.99
2019-02-19T11:34:15.943Z,99.99
2019-02-19T11:35:16.001Z,99.99
2019-02-19T11:36:16.805Z,99.99
2019-02-19T11:37:16.113Z,99.99
2019-02-19T11:38:16.189Z,99.99
2019-02-19T11:39:16.228Z,99.99
2019-02-19T11:40:16.285Z,99.99
2019-02-19T11:41:16.342Z,99.99
2019-02-19T11:42:16.400Z,99.99
2019-02-19T11:43:16.456Z,99.99
2019-02-19T11:44:16.512Z,99.99
2019-02-19T11:45:16.569Z,99.99
2019-02-19T11:46:16.624Z,99.99
2019-02-19T11:47:16.686Z,99.99
2019-02-19T11:48:16.741Z,99.99
2019-02-19T11:49:16.807Z,99.99
2019-02-19T11:50:16.852Z,99.99
2019-02-19T11:51:16.910Z,99.99
2019-02-19T11:52:16.968Z,99.99
2019-02-19T11:53:17.024Z,99.99
2019-02-19T11:54:17.082Z,99.99
2019-02-19T11:55:17.143Z,99.99
2019-02-19T11:56:17.196Z,99.99
2019-02-19T11:57:17.255Z,99.99
2019-02-19T11:58:17.982Z,99.99
2019-02-19T11:59:17.369Z,99.99
2019-02-19T12:00:17.432Z,99.99
2019-02-19T12:01:17.484Z,99.99
2019-02-19T12:02:17.542Z,99.99
2019-02-19T12:03:17.600Z,99.99
2019-02-19T12:04:17.657Z,99.99
2019-02-19T12:05:17.715Z,99.99
2019-02-19T12:06:17.774Z,99.99
2019-02-19T12:07:17.832Z,99.99
2019-02-19T12:08:17.889Z,99.99
2019-02-19T12:09:17.946Z,99.99
2019-02-19T12:10:18.005Z,96.75
2019-02-19T12:11:18.124Z,95.12
2019-02-19T12:12:18.121Z,92.54
2019-02-19T12:13:18.178Z,92.11
2019-02-19T12:14:18.237Z,95.79
2019-02-19T12:15:19.266Z,95.70
2019-02-19T12:16:18.352Z,94.89
2019-02-19T12:17:18.937Z,95.36
2019-02-19T12:18:18.469Z,95.03
2019-02-19T12:19:18.527Z,93.16
2019-02-19T12:20:18.588Z,90.44
2019-02-19T12:21:18.645Z,87.51
2019-02-19T12:22:18.704Z,87.43
2019-02-19T12:23:18.762Z,86.13
2019-02-19T12:24:18.820Z,83.87
2019-02-19T12:25:18.878Z,82.30
2019-02-19T12:26:18.938Z,86.13
2019-02-19T12:27:18.996Z,86.55
2019-02-19T12:28:19.054Z,83.20
2019-02-19T12:29:19.113Z,80.94
2019-02-19T12:30:19.173Z,79.36
2019-02-19T12:31:19.230Z,80.08
2019-02-19T12:32:19.291Z,80.52
2019-02-19T12:33:19.348Z,82.15
2019-02-19T12:34:19.408Z,81.20
2019-02-19T12:35:19.468Z,82.98
2019-02-19T12:36:19.529Z,87.24
2019-02-19T12:37:21.323Z,88.29
2019-02-19T12:38:19.645Z,88.87
2019-02-19T12:39:19.704Z,86.28
2019-02-19T12:40:19.762Z,82.68
2019-02-19T12:41:19.821Z,81.73
2019-02-19T12:42:19.881Z,81.44
2019-02-19T12:43:19.939Z,82.59
2019-02-19T12:44:20.001Z,81.81
2019-02-19T12:45:20.058Z,79.16
2019-02-19T12:46:20.117Z,76.86
2019-02-19T12:47:20.175Z,75.52
2019-02-19T12:48:20.236Z,75.58
2019-02-19T12:49:20.295Z,75.87
2019-02-19T12:50:20.355Z,74.95
2019-02-19T12:51:26.286Z,74.57
2019-02-19T12:52:20.474Z,73.70
2019-02-19T12:53:20.532Z,73.76